メインページ
METAR-TAF:

METAR-TAF

空港 :

リガ国際空港

リガ, ラトビア

緯度: 56-55N, 経度: 023-58E, 海抜: 10m

現時点の気象観測

当レポートは27分前の07:20(UTC)に作成
北東の風 10kt、北/北東からの間で変化する
気温 27°C
湿度 54%
気圧 1010 hPa
視程10km以上
1,500メートル以下は雲なし、積乱雲なし

METAR: EVRA 170720Z 05010KT 020V080 CAVOK 27/17 Q1010 NOSIG

時間: 10:47 (07:47 UTC)

予報

当レポートは2時間47分前の05:00(UTC)に作成
予報は17日の 06時(UTC)から 18日の 06時(UTC)まで有効
北/北東の風 7kt
視程10km以上
1,500メートル以下は雲なし、積乱雲なし
17日の 09時(UTC)から 17日の 15時(UTC)まで一時的に
北/北東の風 12kt、最大25ktの突風を伴う

TAF: EVRA 170500Z 1706/1806 03007KT CAVOK TEMPO 1709/1715 03012G25KT

4,000以上の空港の気象観測と天気予報(METAR報とTAF報)

利用可能な観測所は地図上に黄色い丸と赤い丸で示す。

丸の上にカーソルを重ねると観測所名を参照できる。

次にクリックすると気象観測と天気予報を参照できる。

マップの切り替え:黒色「×」印の緑ボタンをクリックして拡大、「-」印の緑ボタンをクリックして縮小、緑色の三角印をクリックして隣りの地図に切り替え


METAR-TAF: